SLTR

Teniente Av. Jorge Henrich Arauz Airport

Trinidad, Bolivia
METAR SLTR 201600Z 30008KT 9999 FEW020 SCT200 33/24 Q1011
Observed Flight Rules
Sep-20 @ 16:00 UTC (34 minutes ago) Visual Flight Rules
Wind Visibility Clouds
300° at 8 knots 10,000+ meters
  • Few at 2,000' AGL
  • Scattered at 20,000' AGL
Temperatures Readings
Current 33°C / 91°F
Dewpoint 24°C / 75°F
Humidity 59%
Altimeter 29.85" Hg
Pressure 1011 hPa
Elevation 157
METAR SLTR 201600Z 30008KT 9999 FEW020 SCT200 33/24 Q1011
Observed Flight Rules
Sep-20 @ 16:00 UTC
(34 minutes ago)
VFR
Wind Visibility
300° at 8 knots 10,000+ meters
Clouds
  • Few at 2,000' AGL
  • Scattered at 20,000' AGL
Temperature Dewpoint
33°C / 91°F 24°C / 75°F
Humidity Altimeter Pressure
59% 29.85" Hg 1011 hPa